createdAt,value
2022-08-30T00:02:25.347Z,21.17
2022-08-30T00:04:54.167Z,21.26
2022-08-30T00:07:25.289Z,21.28
2022-08-30T00:09:53.052Z,21.32
2022-08-30T00:12:21.979Z,21.34
2022-08-30T00:14:49.877Z,21.32
2022-08-30T00:17:19.336Z,21.28
2022-08-30T00:19:47.181Z,21.24
2022-08-30T00:22:14.860Z,21.22
2022-08-30T00:24:42.612Z,21.21
2022-08-30T00:27:10.165Z,21.19
2022-08-30T00:29:37.913Z,21.17
2022-08-30T00:32:05.695Z,21.16
2022-08-30T00:34:33.301Z,21.12
2022-08-30T00:37:02.249Z,21.06
2022-08-30T00:39:29.794Z,21.00
2022-08-30T00:41:57.597Z,20.93
2022-08-30T00:44:25.178Z,20.90
2022-08-30T00:46:54.811Z,20.85
2022-08-30T00:49:23.785Z,20.82
2022-08-30T00:51:51.804Z,20.73
2022-08-30T00:54:20.108Z,20.70
2022-08-30T00:56:49.991Z,20.67
2022-08-30T00:59:17.662Z,20.63
2022-08-30T01:01:47.716Z,20.55
2022-08-30T01:04:15.950Z,20.54
2022-08-30T01:06:48.474Z,20.48
2022-08-30T01:09:17.580Z,20.42
2022-08-30T01:11:48.958Z,20.39
2022-08-30T01:14:17.194Z,20.37
2022-08-30T01:16:46.227Z,20.33
2022-08-30T01:19:29.421Z,20.27
2022-08-30T01:22:04.404Z,20.20
2022-08-30T01:24:32.726Z,20.19
2022-08-30T01:27:00.413Z,20.14
2022-08-30T01:29:30.323Z,20.10
2022-08-30T01:31:57.831Z,20.07
2022-08-30T01:34:25.768Z,20.02
2022-08-30T01:36:53.339Z,19.97
2022-08-30T01:39:21.049Z,19.96
2022-08-30T01:41:50.389Z,19.92
2022-08-30T01:44:18.118Z,19.89
2022-08-30T01:46:48.990Z,19.84
2022-08-30T01:49:27.893Z,19.75
2022-08-30T01:52:00.548Z,19.66
2022-08-30T01:54:36.600Z,19.62
2022-08-30T01:57:08.622Z,19.54
2022-08-30T01:59:36.766Z,19.44
2022-08-30T02:02:05.448Z,19.38
2022-08-30T02:04:33.120Z,19.31
2022-08-30T02:07:01.402Z,19.22
2022-08-30T02:09:29.055Z,19.10
2022-08-30T02:11:59.143Z,19.02
2022-08-30T02:14:29.538Z,18.98
2022-08-30T02:16:57.149Z,18.94
2022-08-30T02:19:25.266Z,18.90
2022-08-30T02:21:52.852Z,18.86
2022-08-30T02:24:20.398Z,18.79
2022-08-30T02:26:48.657Z,18.79
2022-08-30T02:29:20.302Z,18.77
2022-08-30T02:31:47.951Z,18.82
2022-08-30T02:34:18.440Z,18.84
2022-08-30T02:36:46.778Z,18.82
2022-08-30T02:39:15.870Z,18.81
2022-08-30T02:41:43.570Z,18.80
2022-08-30T02:44:12.253Z,18.78
2022-08-30T02:46:40.015Z,18.82
2022-08-30T02:49:32.664Z,18.88
2022-08-30T02:51:58.238Z,18.88
2022-08-30T02:54:26.241Z,18.90
2022-08-30T02:56:53.965Z,18.90
2022-08-30T02:59:23.468Z,18.89
2022-08-30T03:01:51.046Z,18.91
2022-08-30T03:04:26.689Z,18.91
2022-08-30T03:06:57.016Z,18.91
2022-08-30T03:09:24.646Z,18.86
2022-08-30T03:11:52.216Z,18.90
2022-08-30T03:14:19.785Z,18.89
2022-08-30T03:16:47.425Z,18.86
2022-08-30T03:19:15.053Z,18.89
2022-08-30T03:21:42.573Z,18.90
2022-08-30T03:24:10.689Z,18.85
2022-08-30T03:26:38.210Z,18.81
2022-08-30T03:29:05.861Z,18.86
2022-08-30T03:31:37.787Z,18.84
2022-08-30T03:34:21.893Z,18.81
2022-08-30T03:36:49.588Z,18.77
2022-08-30T03:39:17.151Z,18.75
2022-08-30T03:41:45.822Z,18.76
2022-08-30T03:44:13.566Z,18.77
2022-08-30T03:46:41.180Z,18.76
2022-08-30T03:49:09.291Z,18.75
2022-08-30T03:51:36.885Z,18.75
2022-08-30T03:54:04.516Z,18.75
2022-08-30T03:56:32.116Z,18.76
2022-08-30T03:58:59.717Z,18.75
2022-08-30T04:01:28.493Z,18.75
2022-08-30T04:03:56.631Z,18.70
2022-08-30T04:06:24.710Z,18.71
2022-08-30T04:08:59.761Z,18.65
2022-08-30T04:11:28.710Z,18.62
2022-08-30T04:13:57.112Z,18.58
2022-08-30T04:16:26.416Z,18.53
2022-08-30T04:18:58.713Z,18.51
2022-08-30T04:21:26.581Z,18.47
2022-08-30T04:23:55.199Z,18.41
2022-08-30T04:26:22.711Z,18.37
2022-08-30T04:28:56.487Z,18.42
2022-08-30T04:31:24.113Z,18.49
2022-08-30T04:33:51.989Z,18.51
2022-08-30T04:36:20.073Z,18.57
2022-08-30T04:38:47.615Z,18.65
2022-08-30T04:41:20.819Z,18.78
2022-08-30T04:43:49.457Z,18.93
2022-08-30T04:46:18.991Z,19.06
2022-08-30T04:48:47.229Z,19.25
2022-08-30T04:51:18.510Z,19.39
2022-08-30T04:53:46.577Z,19.62
2022-08-30T04:56:20.380Z,19.83
2022-08-30T04:58:50.462Z,20.03
2022-08-30T05:01:23.808Z,20.25
2022-08-30T05:03:52.941Z,20.42
2022-08-30T05:06:22.749Z,20.58
2022-08-30T05:08:50.774Z,20.69
2022-08-30T05:11:18.971Z,20.87
2022-08-30T05:13:47.244Z,21.02
2022-08-30T05:16:17.894Z,21.22
2022-08-30T05:18:47.473Z,21.34
2022-08-30T05:21:18.680Z,21.49
2022-08-30T05:23:49.017Z,21.61
2022-08-30T05:26:21.777Z,21.61
2022-08-30T05:28:49.870Z,21.66
2022-08-30T05:31:24.950Z,21.77
2022-08-30T05:33:54.011Z,21.80
2022-08-30T05:36:29.009Z,21.88
2022-08-30T05:38:57.583Z,21.90
2022-08-30T05:41:27.076Z,21.91
2022-08-30T05:43:59.900Z,22.03
2022-08-30T05:49:09.817Z,22.06
2022-08-30T05:51:40.239Z,22.17
2022-08-30T05:54:12.323Z,22.03
2022-08-30T05:56:41.244Z,22.02
2022-08-30T05:59:09.940Z,22.14
2022-08-30T06:01:43.446Z,22.26
2022-08-30T06:04:12.553Z,22.36
2022-08-30T06:06:42.352Z,22.53
2022-08-30T06:09:11.716Z,22.54
2022-08-30T06:11:40.711Z,22.62
2022-08-30T06:14:08.608Z,22.82
2022-08-30T06:16:39.595Z,22.88
2022-08-30T06:19:11.026Z,22.89
2022-08-30T06:21:42.185Z,22.90
2022-08-30T06:24:13.013Z,22.86
2022-08-30T06:26:47.241Z,23.01
2022-08-30T06:29:18.555Z,22.95
2022-08-30T06:31:47.000Z,23.05
2022-08-30T06:34:15.655Z,23.07
2022-08-30T06:36:43.520Z,23.21
2022-08-30T06:39:13.841Z,24.21
2022-08-30T06:41:42.622Z,25.28
2022-08-30T06:44:10.310Z,25.54
2022-08-30T06:46:39.554Z,25.09
2022-08-30T06:49:08.592Z,24.70
2022-08-30T06:51:40.509Z,24.56
2022-08-30T06:54:11.920Z,24.43
2022-08-30T06:56:48.764Z,24.51
2022-08-30T06:59:25.945Z,24.27
2022-08-30T07:01:54.741Z,24.52
2022-08-30T07:04:22.493Z,24.64
2022-08-30T07:06:50.042Z,24.65
2022-08-30T07:09:19.818Z,24.78
2022-08-30T07:11:51.652Z,25.11
2022-08-30T07:14:22.052Z,25.22
2022-08-30T07:16:52.121Z,25.36
2022-08-30T07:19:20.800Z,25.76
2022-08-30T07:21:49.417Z,25.89
2022-08-30T07:24:18.070Z,26.54
2022-08-30T07:26:52.271Z,26.86
2022-08-30T07:29:21.246Z,27.39
2022-08-30T07:31:49.427Z,27.80
2022-08-30T07:34:19.255Z,28.19
2022-08-30T07:36:48.920Z,28.66
2022-08-30T07:39:16.479Z,28.42
2022-08-30T07:41:44.498Z,27.75
2022-08-30T07:44:15.834Z,28.07
2022-08-30T07:46:44.170Z,27.95
2022-08-30T07:49:13.014Z,27.51
2022-08-30T07:51:42.394Z,26.87
2022-08-30T07:54:10.177Z,26.80
2022-08-30T07:56:37.718Z,26.77
2022-08-30T07:59:05.901Z,26.18
2022-08-30T08:01:33.541Z,26.62
2022-08-30T08:04:02.196Z,26.67
2022-08-30T08:06:33.314Z,26.93
2022-08-30T08:09:03.101Z,27.09
2022-08-30T08:11:33.678Z,27.81
2022-08-30T08:14:02.597Z,27.89
2022-08-30T08:16:32.169Z,27.94
2022-08-30T08:19:00.007Z,28.04
2022-08-30T08:21:29.982Z,27.81
2022-08-30T08:23:59.791Z,27.01
2022-08-30T08:26:27.334Z,27.37
2022-08-30T08:28:54.988Z,27.94
2022-08-30T08:31:33.296Z,28.01
2022-08-30T08:34:02.811Z,28.11
2022-08-30T08:36:31.361Z,27.99
2022-08-30T08:38:59.832Z,28.31
2022-08-30T08:41:55.123Z,28.46
2022-08-30T08:47:22.435Z,28.48
2022-08-30T08:49:55.997Z,28.62
2022-08-30T08:52:57.801Z,29.00
2022-08-30T08:55:26.597Z,29.26
2022-08-30T08:57:54.277Z,28.73
2022-08-30T09:00:21.878Z,31.09
2022-08-30T09:02:58.370Z,30.99
2022-08-30T09:05:30.240Z,29.93
2022-08-30T09:08:09.173Z,29.00
2022-08-30T09:10:50.283Z,29.33
2022-08-30T09:13:19.025Z,30.26
2022-08-30T09:15:54.367Z,31.09
2022-08-30T09:18:51.241Z,30.58
2022-08-30T09:21:26.827Z,30.06
2022-08-30T09:24:03.466Z,30.21
2022-08-30T09:26:37.827Z,30.30
2022-08-30T09:29:18.887Z,30.41
2022-08-30T09:32:10.076Z,29.75
2022-08-30T09:34:45.164Z,29.17
2022-08-30T09:37:27.071Z,29.76
2022-08-30T09:39:54.871Z,30.03
2022-08-30T09:42:29.401Z,31.13
2022-08-30T09:45:10.396Z,31.75
2022-08-30T09:47:44.211Z,33.46
2022-08-30T09:50:18.584Z,33.76
2022-08-30T09:52:58.646Z,33.20
2022-08-30T09:55:41.706Z,33.94
2022-08-30T09:58:29.380Z,32.75
2022-08-30T10:01:14.404Z,31.06
2022-08-30T10:04:07.671Z,30.76
2022-08-30T10:06:42.088Z,32.72
2022-08-30T10:09:48.670Z,32.19
2022-08-30T10:12:24.430Z,31.18
2022-08-30T10:15:07.399Z,31.72
2022-08-30T10:17:56.451Z,32.05
2022-08-30T10:20:31.890Z,32.68
2022-08-30T10:23:10.514Z,33.17
2022-08-30T10:25:56.220Z,33.49
2022-08-30T10:28:29.137Z,32.38
2022-08-30T10:31:35.118Z,32.38
2022-08-30T10:34:10.892Z,32.61
2022-08-30T10:36:45.894Z,33.04
2022-08-30T10:39:23.337Z,33.28
2022-08-30T10:42:01.009Z,33.14
2022-08-30T10:44:38.578Z,33.52
2022-08-30T10:47:37.325Z,33.62
2022-08-30T10:50:11.529Z,34.00
2022-08-30T10:52:51.581Z,33.31
2022-08-30T10:55:25.736Z,33.85
2022-08-30T10:57:53.956Z,33.51
2022-08-30T11:00:31.299Z,32.60
2022-08-30T11:03:07.827Z,33.39
2022-08-30T11:05:45.674Z,33.89
2022-08-30T11:08:54.552Z,33.04
2022-08-30T11:11:29.100Z,34.06
2022-08-30T11:14:05.478Z,33.01
2022-08-30T11:16:40.627Z,32.62
2022-08-30T11:19:39.124Z,33.02
2022-08-30T11:22:23.325Z,34.13
2022-08-30T11:25:10.149Z,32.08
2022-08-30T11:27:58.442Z,30.54
2022-08-30T11:30:27.076Z,29.95
2022-08-30T11:33:07.935Z,29.97
2022-08-30T11:35:50.260Z,29.65
2022-08-30T11:38:40.838Z,28.89
2022-08-30T11:41:14.121Z,28.62
2022-08-30T11:43:44.621Z,28.81
2022-08-30T11:46:16.683Z,30.17
2022-08-30T11:49:05.412Z,30.25
2022-08-30T11:52:23.709Z,31.41
2022-08-30T11:55:08.198Z,32.24
2022-08-30T11:58:06.745Z,33.32
2022-08-30T12:00:40.750Z,33.95
2022-08-30T12:03:17.726Z,35.02
2022-08-30T12:05:51.383Z,34.05
2022-08-30T12:08:24.216Z,33.81
2022-08-30T12:11:00.373Z,32.28
2022-08-30T12:13:54.053Z,32.33
2022-08-30T12:17:03.146Z,31.71
2022-08-30T12:19:31.651Z,31.25
2022-08-30T12:22:04.264Z,31.20
2022-08-30T12:24:40.106Z,31.61
2022-08-30T12:27:27.982Z,31.46
2022-08-30T12:30:03.264Z,31.87
2022-08-30T12:32:36.536Z,32.10
2022-08-30T12:35:07.157Z,33.28
2022-08-30T12:37:42.163Z,32.98
2022-08-30T12:40:22.255Z,31.94
2022-08-30T12:42:57.838Z,31.25
2022-08-30T12:45:31.258Z,30.75
2022-08-30T12:48:13.199Z,30.78
2022-08-30T12:50:51.993Z,31.59
2022-08-30T12:53:37.657Z,32.48
2022-08-30T12:56:09.382Z,31.46
2022-08-30T12:58:44.763Z,31.36
2022-08-30T13:01:14.159Z,31.56
2022-08-30T13:03:42.590Z,30.92
2022-08-30T13:06:10.465Z,30.68
2022-08-30T13:08:45.911Z,31.44
2022-08-30T13:11:41.255Z,32.06
2022-08-30T13:14:31.583Z,31.73
2022-08-30T13:17:12.593Z,31.32
2022-08-30T13:19:43.516Z,30.98
2022-08-30T13:22:33.946Z,31.04
2022-08-30T13:25:04.678Z,30.76
2022-08-30T13:27:37.287Z,30.30
2022-08-30T13:30:16.973Z,30.36
2022-08-30T13:32:46.111Z,30.10
2022-08-30T13:35:13.765Z,30.24
2022-08-30T13:37:49.787Z,30.23
2022-08-30T13:40:19.394Z,30.01
2022-08-30T13:42:47.213Z,29.78
2022-08-30T13:48:06.658Z,29.54
2022-08-30T13:50:34.431Z,29.32
2022-08-30T13:53:04.478Z,29.30
2022-08-30T13:55:32.102Z,29.17
2022-08-30T13:57:59.615Z,29.05
2022-08-30T14:00:29.785Z,29.02
2022-08-30T14:03:02.275Z,28.95
2022-08-30T14:05:54.707Z,28.80
2022-08-30T14:11:18.521Z,28.51
2022-08-30T14:16:38.258Z,28.35
2022-08-30T14:19:07.606Z,28.37
2022-08-30T14:21:36.417Z,28.33
2022-08-30T14:24:06.461Z,28.29
2022-08-30T14:26:40.507Z,28.21
2022-08-30T14:29:13.781Z,28.14
2022-08-30T14:31:42.138Z,28.00
2022-08-30T14:34:16.326Z,28.01
2022-08-30T14:36:48.553Z,27.87
2022-08-30T14:39:18.787Z,27.84
2022-08-30T14:41:50.206Z,27.76
2022-08-30T14:44:20.500Z,27.72
2022-08-30T14:46:48.878Z,27.65
2022-08-30T14:49:19.025Z,27.67
2022-08-30T14:51:48.508Z,27.69
2022-08-30T14:54:20.083Z,27.73
2022-08-30T14:56:48.479Z,27.75
2022-08-30T14:59:16.365Z,27.71
2022-08-30T15:01:44.421Z,27.67
2022-08-30T15:04:16.888Z,27.56
2022-08-30T15:06:46.872Z,27.60
2022-08-30T15:09:19.141Z,27.57
2022-08-30T15:11:55.120Z,27.61
2022-08-30T15:14:25.633Z,27.63
2022-08-30T15:16:56.415Z,27.61
2022-08-30T15:19:24.293Z,27.59
2022-08-30T15:21:52.076Z,27.54
2022-08-30T15:24:29.547Z,27.57
2022-08-30T15:27:01.940Z,27.58
2022-08-30T15:29:32.031Z,27.64
2022-08-30T15:32:01.093Z,27.68
2022-08-30T15:34:28.940Z,27.69
2022-08-30T15:36:57.659Z,27.68
2022-08-30T15:39:27.787Z,27.68
2022-08-30T15:42:00.619Z,27.74
2022-08-30T15:44:34.452Z,27.76
2022-08-30T15:47:03.872Z,27.80
2022-08-30T15:49:31.478Z,27.86
2022-08-30T15:52:03.556Z,27.86
2022-08-30T15:54:33.447Z,27.91
2022-08-30T15:57:06.002Z,28.00
2022-08-30T15:59:33.587Z,28.05
2022-08-30T16:02:01.569Z,28.05
2022-08-30T16:04:29.532Z,28.03
2022-08-30T16:06:57.342Z,28.00
2022-08-30T16:09:26.568Z,28.00
2022-08-30T16:11:57.850Z,27.80
2022-08-30T16:14:25.711Z,27.80
2022-08-30T16:16:54.338Z,27.74
2022-08-30T16:19:23.150Z,27.69
2022-08-30T16:21:52.233Z,27.61
2022-08-30T16:24:22.710Z,27.56
2022-08-30T16:26:53.389Z,27.49
2022-08-30T16:29:23.839Z,27.47
2022-08-30T16:31:51.456Z,27.45
2022-08-30T16:34:20.869Z,27.41
2022-08-30T16:36:48.901Z,27.35
2022-08-30T16:39:17.131Z,27.33
2022-08-30T16:41:45.528Z,27.27
2022-08-30T16:44:15.643Z,27.23
2022-08-30T16:46:52.591Z,27.21
2022-08-30T16:49:21.115Z,27.19
2022-08-30T16:51:50.539Z,27.11
2022-08-30T16:54:19.184Z,27.07
2022-08-30T16:56:47.400Z,27.00
2022-08-30T16:59:16.833Z,26.98
2022-08-30T17:01:44.885Z,26.93
2022-08-30T17:04:15.812Z,26.91
2022-08-30T17:06:46.739Z,26.89
2022-08-30T17:09:15.246Z,26.84
2022-08-30T17:11:43.227Z,26.79
2022-08-30T17:14:10.814Z,26.69
2022-08-30T17:16:38.959Z,26.56
2022-08-30T17:19:11.645Z,26.48
2022-08-30T17:21:39.226Z,26.39
2022-08-30T17:24:06.923Z,26.31
2022-08-30T17:26:39.845Z,26.22
2022-08-30T17:29:10.887Z,26.10
2022-08-30T17:31:41.422Z,26.02
2022-08-30T17:34:09.141Z,25.91
2022-08-30T17:36:39.271Z,25.80
2022-08-30T17:39:11.065Z,25.71
2022-08-30T17:41:43.319Z,25.61
2022-08-30T17:44:17.757Z,25.53
2022-08-30T17:46:45.729Z,25.42
2022-08-30T17:49:13.372Z,25.32
2022-08-30T17:51:45.763Z,25.19
2022-08-30T17:54:15.580Z,25.08
2022-08-30T17:56:45.734Z,24.96
2022-08-30T17:59:17.295Z,24.82
2022-08-30T18:01:45.996Z,24.71
2022-08-30T18:04:19.486Z,24.57
2022-08-30T18:06:48.617Z,24.44
2022-08-30T18:09:17.200Z,24.34
2022-08-30T18:11:48.359Z,24.26
2022-08-30T18:14:16.558Z,24.18
2022-08-30T18:16:53.350Z,24.10
2022-08-30T18:19:22.253Z,24.06
2022-08-30T18:21:49.846Z,23.99
2022-08-30T18:24:18.182Z,23.95
2022-08-30T18:26:48.355Z,23.90
2022-08-30T18:29:18.980Z,23.87
2022-08-30T18:31:59.737Z,23.81
2022-08-30T18:34:27.939Z,23.73
2022-08-30T18:36:55.618Z,23.66
2022-08-30T18:39:23.261Z,23.63
2022-08-30T18:41:54.375Z,23.61
2022-08-30T18:44:27.926Z,23.60
2022-08-30T18:46:57.396Z,23.65
2022-08-30T18:49:27.077Z,23.72
2022-08-30T18:51:55.511Z,23.74
2022-08-30T18:54:23.868Z,23.78
2022-08-30T18:56:51.974Z,23.80
2022-08-30T18:59:19.974Z,23.76
2022-08-30T19:01:49.126Z,23.73
2022-08-30T19:04:22.258Z,23.67
2022-08-30T19:06:57.101Z,23.56
2022-08-30T19:09:24.670Z,23.49
2022-08-30T19:11:54.593Z,23.45
2022-08-30T19:14:24.561Z,23.41
2022-08-30T19:17:02.062Z,23.34
2022-08-30T19:19:32.283Z,23.29
2022-08-30T19:22:02.409Z,23.27
2022-08-30T19:24:33.519Z,23.23
2022-08-30T19:27:02.001Z,23.21
2022-08-30T19:29:31.978Z,23.17
2022-08-30T19:31:59.505Z,23.11
2022-08-30T19:34:32.050Z,23.09
2022-08-30T19:37:01.730Z,23.02
2022-08-30T19:39:31.554Z,22.99
2022-08-30T19:41:59.101Z,22.94
2022-08-30T19:44:27.893Z,22.86
2022-08-30T19:46:56.145Z,22.81
2022-08-30T19:49:24.045Z,22.81
2022-08-30T19:51:52.652Z,22.77
2022-08-30T19:54:21.320Z,22.75
2022-08-30T19:56:48.872Z,22.72
2022-08-30T19:59:17.879Z,22.73
2022-08-30T20:01:46.086Z,22.70
2022-08-30T20:04:14.309Z,22.65
2022-08-30T20:06:44.704Z,22.60
2022-08-30T20:09:13.316Z,22.58
2022-08-30T20:11:42.288Z,22.53
2022-08-30T20:14:11.045Z,22.48
2022-08-30T20:16:41.328Z,22.39
2022-08-30T20:19:13.739Z,22.35
2022-08-30T20:21:41.597Z,22.29
2022-08-30T20:24:10.050Z,22.24
2022-08-30T20:26:38.237Z,22.21
2022-08-30T20:29:07.352Z,22.14
2022-08-30T20:31:36.155Z,22.09
2022-08-30T20:34:05.473Z,22.01
2022-08-30T20:36:33.707Z,21.98
2022-08-30T20:39:02.164Z,21.97
2022-08-30T20:41:30.671Z,21.98
2022-08-30T20:43:58.439Z,21.96
2022-08-30T20:46:33.475Z,21.96
2022-08-30T20:49:03.299Z,21.94
2022-08-30T20:51:33.333Z,21.88
2022-08-30T20:54:02.541Z,21.81
2022-08-30T20:56:34.284Z,21.72
2022-08-30T20:59:03.519Z,21.64
2022-08-30T21:01:35.670Z,21.58
2022-08-30T21:04:08.087Z,21.49
2022-08-30T21:06:37.710Z,21.42
2022-08-30T21:09:07.270Z,21.38
2022-08-30T21:11:38.477Z,21.34
2022-08-30T21:14:12.522Z,21.37
2022-08-30T21:16:40.141Z,21.32
2022-08-30T21:19:08.899Z,21.27
2022-08-30T21:21:38.563Z,21.22
2022-08-30T21:24:09.962Z,21.17
2022-08-30T21:26:39.280Z,21.11
2022-08-30T21:29:09.891Z,21.03
2022-08-30T21:31:39.889Z,20.96
2022-08-30T21:34:13.186Z,20.82
2022-08-30T21:36:47.802Z,20.72
2022-08-30T21:39:26.229Z,20.58
2022-08-30T21:41:57.197Z,20.41
2022-08-30T21:44:27.029Z,20.31
2022-08-30T21:46:55.220Z,20.26
2022-08-30T21:49:24.847Z,20.16
2022-08-30T21:51:53.841Z,20.08
2022-08-30T21:54:22.790Z,20.01
2022-08-30T21:56:51.887Z,19.93
2022-08-30T21:59:21.128Z,19.85
2022-08-30T22:01:49.679Z,19.88
2022-08-30T22:04:17.438Z,19.87
2022-08-30T22:06:50.049Z,19.88
2022-08-30T22:09:21.074Z,19.84
2022-08-30T22:11:52.226Z,19.75
2022-08-30T22:14:21.180Z,19.66
2022-08-30T22:16:49.197Z,19.60
2022-08-30T22:19:23.059Z,19.53
2022-08-30T22:21:50.758Z,19.49
2022-08-30T22:24:18.330Z,19.45
2022-08-30T22:26:47.603Z,19.47
2022-08-30T22:29:15.540Z,19.49
2022-08-30T22:31:44.024Z,19.44
2022-08-30T22:34:12.437Z,19.45
2022-08-30T22:36:39.994Z,19.44
2022-08-30T22:39:10.516Z,19.42
2022-08-30T22:41:42.854Z,19.38
2022-08-30T22:44:10.640Z,19.27
2022-08-30T22:46:38.687Z,19.29
2022-08-30T22:49:09.295Z,19.20
2022-08-30T22:51:37.574Z,19.21
2022-08-30T22:54:08.849Z,19.07
2022-08-30T22:56:38.125Z,19.09
2022-08-30T22:59:07.397Z,19.07
2022-08-30T23:01:43.213Z,19.09
2022-08-30T23:04:11.970Z,19.27
2022-08-30T23:06:39.775Z,19.32
2022-08-30T23:09:08.037Z,19.43
2022-08-30T23:11:39.568Z,19.53
2022-08-30T23:14:07.750Z,19.59
2022-08-30T23:16:37.499Z,19.66
2022-08-30T23:19:05.836Z,19.70
2022-08-30T23:21:35.822Z,19.74
2022-08-30T23:24:21.153Z,19.76
2022-08-30T23:27:06.599Z,19.78
2022-08-30T23:29:52.414Z,19.74
2022-08-30T23:32:40.389Z,19.74
2022-08-30T23:35:30.657Z,19.74
2022-08-30T23:38:18.159Z,19.74
2022-08-30T23:41:03.134Z,19.77
2022-08-30T23:43:50.963Z,19.77
2022-08-30T23:46:36.392Z,19.79
2022-08-30T23:49:21.990Z,19.74
2022-08-30T23:52:07.385Z,19.73
2022-08-30T23:54:57.203Z,19.71
2022-08-30T23:57:43.923Z,19.71
